Richardson's Hourly Summary for Wednesday, March 15, 2017
Hour Temp
(f)
RH
(%)
Solar Rad.
(MJ/m2)
Rainfall
(in)
Wind
(mph)
3/15/2017 12:00 AM 50 55 0 0 0.65
3/15/2017 1:00 AM 48 50 0 0 2.91
3/15/2017 2:00 AM 47 51 0 0 2.66
3/15/2017 3:00 AM 45 54 0 0 2.25
3/15/2017 4:00 AM 45 56 0 0 2.4
3/15/2017 5:00 AM 46 58 0 0 3.09
3/15/2017 6:00 AM 45 60 0 0 3.6
3/15/2017 7:00 AM 45 64 0 0 4.41
3/15/2017 8:00 AM 44 66 0.01 0 5.02
3/15/2017 9:00 AM 44 63 0.21 0 5.63
3/15/2017 10:00 AM 45 61 0.75 0 5.55
3/15/2017 11:00 AM 47 58 1.6 0 5.72
3/15/2017 12:00 PM 49 55 2.13 0 5.58
3/15/2017 1:00 PM 52 51 2.59 0 5.26
3/15/2017 2:00 PM 55 46 2.45 0 4.89
3/15/2017 3:00 PM 57 44 2.82 0 5.49
3/15/2017 4:00 PM 59 41 2.49 0 5.58
3/15/2017 5:00 PM 61 42 1.81 0 4.99
3/15/2017 6:00 PM 61 43 1.19 0 5.45
3/15/2017 7:00 PM 61 43 0.47 0 5.38
3/15/2017 8:00 PM 60 47 0.03 0 3.64
3/15/2017 9:00 PM 58 51 0 0 2.55
3/15/2017 10:00 PM 56 54 0 0 2.4
3/15/2017 11:00 PM 54 60 0 0 2.76
Data Summary 51 53 18.55 0.00 4.08